Time;durP1;ratioP1;P1;durP2;ratioP2;P2;SDS_P1;SDS_P2;PMS_P1;PMS_P2;Temp;Humidity;BMP_temperature;BMP_pressure;BME280_temperature;BME280_humidity;BME280_pressure;Samples;Min_cycle;Max_cycle;Signal;HPM_P1;HPM_P2
2023/01/14 00:01:46;;;;;;;9.30;1.98;;;;;;;6.14;100.00;98919.66;4134147;28;20970;-50
2023/01/14 00:03:48;;;;;;;9.68;2.35;;;;;;;6.18;100.00;98920.91;4151394;28;20197;-50
2023/01/14 00:05:58;;;;;;;2.83;1.85;;;;;;;6.16;100.00;98917.59;4139672;28;20206;-49
2023/01/14 00:08:00;;;;;;;5.18;2.65;;;;;;;6.16;100.00;98928.47;4135080;28;20209;-49
2023/01/14 00:10:02;;;;;;;8.02;3.08;;;;;;;6.22;100.00;98927.63;4138480;28;20263;-49
2023/01/14 00:12:03;;;;;;;3.28;1.80;;;;;;;6.19;100.00;98930.75;4138866;28;20221;-49
2023/01/14 00:14:05;;;;;;;10.85;2.47;;;;;;;6.11;100.00;98920.09;4138301;28;20270;-49
2023/01/14 00:16:11;;;;;;;4.07;1.83;;;;;;;6.22;100.00;98922.19;4137774;28;20256;-49
2023/01/14 00:18:13;;;;;;;5.38;1.83;;;;;;;6.16;100.00;98917.59;4138454;28;20722;-49
2023/01/14 00:20:15;;;;;;;4.30;1.83;;;;;;;6.09;100.00;98924.91;4137989;28;20661;-49
2023/01/14 00:22:17;;;;;;;5.40;2.92;;;;;;;6.07;100.00;98925.13;4136643;28;20220;-49
2023/01/14 00:24:19;;;;;;;2.47;1.70;;;;;;;6.24;100.00;98942.63;4137274;28;20221;-49
2023/01/14 00:26:21;;;;;;;4.47;2.60;;;;;;;6.18;100.00;98942.66;4133604;28;20214;-50
2023/01/14 00:28:23;;;;;;;4.97;1.52;;;;;;;6.25;100.00;98935.31;4135832;28;20206;-49
2023/01/14 00:30:25;;;;;;;5.25;2.20;;;;;;;6.25;100.00;98932.59;4137928;28;20204;-50
2023/01/14 00:32:27;;;;;;;5.40;1.55;;;;;;;6.21;100.00;98940.34;4140892;28;20763;-49
2023/01/14 00:34:30;;;;;;;3.97;1.67;;;;;;;6.24;100.00;98933.66;4153769;28;20204;-49
2023/01/14 00:36:31;;;;;;;8.88;2.55;;;;;;;6.25;100.00;98935.31;4122766;28;20210;-50
2023/01/14 00:38:34;;;;;;;6.75;2.17;;;;;;;6.31;100.00;98935.31;4137925;28;20205;-50
2023/01/14 00:40:35;;;;;;;5.65;1.95;;;;;;;6.31;100.00;98939.91;4140143;28;20236;-50
2023/01/14 00:42:37;;;;;;;5.07;1.63;;;;;;;6.25;100.00;98935.31;4137292;28;20449;-49
2023/01/14 00:44:39;;;;;;;1.83;1.30;;;;;;;6.29;100.00;98933.88;4137352;28;20249;-49
2023/01/14 00:46:41;;;;;;;8.88;1.73;;;;;;;6.28;100.00;98933.00;4136824;28;20264;-49
2023/01/14 00:48:43;;;;;;;2.95;1.50;;;;;;;6.25;100.00;98941.59;4154988;28;20236;-50
2023/01/14 00:50:45;;;;;;;4.50;2.42;;;;;;;6.25;100.00;98943.47;4136957;28;20210;-49
2023/01/14 00:52:47;;;;;;;5.57;1.70;;;;;;;6.22;100.00;98939.28;4139701;28;20234;-50
2023/01/14 00:54:48;;;;;;;5.82;1.85;;;;;;;6.25;100.00;98935.31;4138105;28;20209;-49
2023/01/14 00:56:50;;;;;;;3.92;1.80;;;;;;;6.22;100.00;98943.91;4123477;28;20310;-49
2023/01/14 00:58:52;;;;;;;7.18;1.83;;;;;;;6.21;100.00;98929.47;4137276;28;20257;-49
2023/01/14 01:00:54;;;;;;;8.80;2.13;;;;;;;6.25;100.00;98930.75;4139202;28;20852;-50
2023/01/14 01:02:57;;;;;;;5.00;1.98;;;;;;;6.21;100.00;98931.34;4143454;28;20209;-49
2023/01/14 01:04:59;;;;;;;8.40;1.88;;;;;;;6.27;100.00;98944.09;4124245;28;20209;-49
2023/01/14 01:07:01;;;;;;;4.80;1.42;;;;;;;6.30;100.00;98940.97;4152654;28;20208;-49
2023/01/14 01:09:03;;;;;;;1.58;1.42;;;;;;;6.31;100.00;98946.19;4137513;28;20205;-49
2023/01/14 01:11:06;;;;;;;6.68;2.47;;;;;;;6.28;100.00;98943.06;4138661;28;20233;-50
2023/01/14 01:13:09;;;;;;;2.72;1.42;;;;;;;6.29;100.00;98942.03;4137101;28;20209;-49
2023/01/14 01:15:11;;;;;;;14.23;2.28;;;;;;;6.32;100.00;98947.00;4153742;28;20255;-49
2023/01/14 01:17:13;;;;;;;8.00;1.85;;;;;;;6.34;100.00;98948.47;4139636;28;20217;-50
2023/01/14 01:19:15;;;;;;;6.53;1.38;;;;;;;6.35;100.00;98938.44;4120951;28;20299;-50
2023/01/14 01:21:17;;;;;;;4.35;2.08;;;;;;;6.28;100.00;98943.06;4151324;28;20237;-50
2023/01/14 01:23:18;;;;;;;2.72;1.52;;;;;;;6.29;100.00;98939.31;4134914;28;20224;-49
2023/01/14 01:25:20;;;;;;;7.15;3.03;;;;;;;6.29;100.00;98933.88;4137119;28;20730;-49
2023/01/14 01:27:22;;;;;;;4.10;2.55;;;;;;;6.34;100.00;98931.31;4139374;28;20312;-49
2023/01/14 01:29:25;;;;;;;6.60;1.70;;;;;;;6.37;100.00;98931.72;4141877;28;20209;-49
2023/01/14 01:31:28;;;;;;;6.32;2.13;;;;;;;6.34;100.00;98925.88;4136272;28;20221;-49
2023/01/14 01:33:30;;;;;;;5.97;2.67;;;;;;;6.36;100.00;98931.97;4152220;28;20208;-49
2023/01/14 01:35:32;;;;;;;3.67;1.65;;;;;;;6.32;100.00;98930.72;4133893;28;20206;-50
2023/01/14 01:37:34;;;;;;;3.47;1.30;;;;;;;6.35;100.00;98930.31;4137190;28;20210;-50
2023/01/14 01:39:36;;;;;;;4.55;2.33;;;;;;;6.38;100.00;98935.28;4135481;28;20303;-49
2023/01/14 01:41:38;;;;;;;2.13;1.20;;;;;;;6.34;100.00;98936.75;4136868;28;20221;-49
2023/01/14 01:44:10;;;;;;;3.22;2.33;;;;;;;6.29;100.00;98950.16;4123879;28;20786;-50
2023/01/14 01:46:11;;;;;;;5.65;1.42;;;;;;;6.30;100.00;98940.97;4137590;28;20275;-50
2023/01/14 01:48:38;;;;;;;8.82;2.72;;;;;;;6.39;100.00;98953.25;4140219;28;20214;-50
2023/01/14 01:50:41;;;;;;;6.55;1.40;;;;;;;6.43;100.00;98947.19;4135298;28;20307;-50
2023/01/14 01:52:44;;;;;;;4.53;2.33;;;;;;;6.32;100.00;98939.72;4136803;28;20256;-50
2023/01/14 01:54:58;;;;;;;5.50;2.30;;;;;;;6.36;100.00;98940.13;4135989;28;20202;-49
2023/01/14 01:57:01;;;;;;;2.53;1.30;;;;;;;6.38;100.00;98947.00;4138981;28;20734;-49
2023/01/14 01:59:07;;;;;;;8.98;2.00;;;;;;;6.38;100.00;98938.00;4136832;28;20618;-49
2023/01/14 02:01:08;;;;;;;9.05;1.75;;;;;;;6.34;100.00;98947.63;4134731;28;20253;-50
2023/01/14 02:03:14;;;;;;;2.83;1.50;;;;;;;6.32;100.00;98933.44;4135545;28;20622;-48
2023/01/14 02:05:16;;;;;;;12.30;2.35;;;;;;;6.32;100.00;98938.88;4137707;28;22349;-50
2023/01/14 02:07:22;;;;;;;9.15;2.03;;;;;;;6.35;100.00;98943.88;4151439;28;20663;-50
2023/01/14 02:09:24;;;;;;;3.90;1.58;;;;;;;6.33;100.00;98941.38;4152481;28;20259;-50
2023/01/14 02:11:40;;;;;;;5.22;2.17;;;;;;;6.25;100.00;98932.59;4139760;28;20229;-49
2023/01/14 02:14:06;;;;;;;7.85;1.55;;;;;;;6.25;100.00;98940.75;4137855;28;20651;-50
2023/01/14 02:16:19;;;;;;;5.80;1.02;;;;;;;6.26;100.00;98947.84;4139471;28;20267;-49
2023/01/14 02:18:35;;;;;;;2.90;2.28;;;;;;;6.27;100.00;98952.25;4136378;28;20203;-49
2023/01/14 02:20:41;;;;;;;3.15;1.33;;;;;;;6.34;100.00;98948.47;4131141;28;20214;-49
2023/01/14 02:23:09;;;;;;;2.17;1.70;;;;;;;6.28;100.00;98946.59;4136475;28;20902;-50
2023/01/14 02:25:55;;;;;;;6.43;1.85;;;;;;;6.29;100.00;98944.72;4140850;28;20283;-49
2023/01/14 02:28:07;;;;;;;2.22;1.83;;;;;;;6.27;100.00;98941.38;4108351;28;20759;-49
2023/01/14 02:30:31;;;;;;;6.10;1.70;;;;;;;6.18;100.00;98929.06;4135928;28;20213;-50
2023/01/14 02:32:46;;;;;;;6.00;1.85;;;;;;;6.23;100.00;98934.72;4136778;28;20695;-50
2023/01/14 02:35:26;;;;;;;3.95;2.65;;;;;;;6.23;100.00;98929.28;4122200;28;20692;-49
2023/01/14 02:38:07;;;;;;;4.22;1.83;;;;;;;6.16;100.00;98933.88;4137863;28;20299;-50
2023/01/14 02:40:20;;;;;;;2.13;1.67;;;;;;;6.26;100.00;98926.13;4094822;28;20241;-50
2023/01/14 02:44:55;;;;;;;5.47;2.42;;;;;;;6.08;100.00;98909.69;4136585;28;21181;-51
2023/01/14 02:47:02;;;;;;;3.63;1.77;;;;;;;6.12;100.00;98910.91;4139142;28;20209;-49
2023/01/14 02:49:06;;;;;;;6.30;1.67;;;;;;;6.07;100.00;98914.25;4151380;28;20324;-50
2023/01/14 02:51:09;;;;;;;3.30;1.40;;;;;;;6.03;100.00;98902.13;4138015;28;20273;-50
2023/01/14 02:53:15;;;;;;;7.82;2.03;;;;;;;6.05;100.00;98901.94;4137175;28;20275;-51
2023/01/14 02:55:26;;;;;;;2.50;1.40;;;;;;;6.02;100.00;98894.22;4138523;28;20639;-50
2023/01/14 02:57:59;;;;;;;5.03;2.03;;;;;;;6.05;100.00;98897.34;4137329;28;20209;-50
2023/01/14 03:00:27;;;;;;;3.28;1.88;;;;;;;6.00;100.00;98888.13;4136145;28;20221;-50
2023/01/14 03:02:29;;;;;;;2.88;2.60;;;;;;;6.05;100.00;98888.34;4136718;28;20324;-50
2023/01/14 03:05:11;;;;;;;4.85;1.27;;;;;;;5.98;100.00;98890.25;4136082;28;20209;-50
2023/01/14 03:07:18;;;;;;;5.57;2.40;;;;;;;6.01;100.00;98885.22;4133903;28;20703;-49
2023/01/14 03:09:32;;;;;;;3.53;1.70;;;;;;;5.98;100.00;98882.09;4136913;28;20694;-50
2023/01/14 03:11:42;;;;;;;3.53;2.72;;;;;;;6.03;100.00;98874.16;4137756;28;20276;-50
2023/01/14 03:14:01;;;;;;;3.50;1.92;;;;;;;6.04;100.00;98871.22;4151048;28;20204;-49
2023/01/14 03:16:13;;;;;;;5.47;1.50;;;;;;;5.95;100.00;98872.50;4123743;28;20261;-50
2023/01/14 03:18:29;;;;;;;2.78;1.52;;;;;;;6.02;100.00;98858.91;4137577;28;20233;-50
2023/01/14 03:20:33;;;;;;;3.38;2.10;;;;;;;6.01;100.00;98865.38;4134431;28;20750;-51
2023/01/14 03:22:36;;;;;;;12.90;2.28;;;;;;;5.98;100.00;98865.81;4123302;28;20206;-50
2023/01/14 03:24:43;;;;;;;2.25;1.50;;;;;;;5.99;100.00;98856.59;4136225;28;20260;-50
2023/01/14 03:26:47;;;;;;;8.38;1.67;;;;;;;5.95;100.00;98860.81;4137859;28;20700;-50
2023/01/14 03:28:50;;;;;;;6.10;2.17;;;;;;;5.96;100.00;98857.03;4139349;28;20237;-49
2023/01/14 03:30:58;;;;;;;5.43;2.58;;;;;;;5.91;100.00;98854.97;4136676;28;20683;-49
2023/01/14 03:33:04;;;;;;;2.92;1.35;;;;;;;5.92;100.00;98858.50;4133742;28;20217;-49
2023/01/14 03:35:10;;;;;;;2.63;1.70;;;;;;;5.98;100.00;98852.22;4135879;28;20209;-49
2023/01/14 03:37:15;;;;;;;2.78;1.98;;;;;;;5.92;100.00;98855.78;4139684;28;20287;-51
2023/01/14 03:39:20;;;;;;;3.58;1.98;;;;;;;5.91;100.00;98859.56;4135581;28;20273;-50
2023/01/14 03:43:46;;;;;;;14.43;2.35;;;;;;;5.85;100.00;98854.97;4135635;28;20344;-49
2023/01/14 03:45:49;;;;;;;5.57;2.78;;;;;;;5.83;100.00;98854.34;4136622;28;20313;-50
2023/01/14 03:47:51;;;;;;;9.48;3.05;;;;;;;5.85;100.00;98852.25;4135361;28;20209;-50
2023/01/14 03:49:52;;;;;;;7.35;2.42;;;;;;;5.81;100.00;98843.69;4135806;28;20776;-50
2023/01/14 03:52:12;;;;;;;4.45;1.80;;;;;;;5.80;100.00;98852.88;4136606;28;20281;-49
2023/01/14 03:54:22;;;;;;;6.72;1.83;;;;;;;5.83;100.00;98846.22;4137102;28;20245;-50
2023/01/14 03:56:36;;;;;;;9.68;1.92;;;;;;;5.86;100.00;98849.34;4137280;28;20251;-50
2023/01/14 03:58:39;;;;;;;16.80;2.55;;;;;;;5.77;100.00;98847.00;4131491;28;20706;-50
2023/01/14 04:00:55;;;;;;;8.50;1.80;;;;;;;5.82;100.00;98839.13;4134750;28;20213;-50
2023/01/14 04:02:59;;;;;;;5.88;2.33;;;;;;;5.82;100.00;98839.13;4112129;28;20214;-50
2023/01/14 04:05:01;;;;;;;2.08;1.95;;;;;;;5.86;100.00;98829.47;4139028;28;20317;-50
2023/01/14 04:07:03;;;;;;;4.60;2.08;;;;;;;5.76;100.00;98823.63;4131911;28;20209;-48
2023/01/14 04:09:06;;;;;;;3.50;2.05;;;;;;;5.78;100.00;98822.38;4147410;28;20247;-49
2023/01/14 04:11:08;;;;;;;7.28;2.05;;;;;;;5.77;100.00;98814.44;4139551;28;20785;-49
2023/01/14 04:15:34;;;;;;;4.15;2.10;;;;;;;5.73;100.00;98818.59;4134135;28;20198;-49
2023/01/14 04:17:39;;;;;;;4.22;2.45;;;;;;;5.72;100.00;98806.09;4137317;28;20311;-50
2023/01/14 04:19:40;;;;;;;11.52;2.40;;;;;;;5.66;100.00;98812.38;4135318;28;20206;-49
2023/01/14 04:21:42;;;;;;;7.57;1.73;;;;;;;5.69;100.00;98801.91;4151035;28;20220;-50
2023/01/14 04:23:44;;;;;;;3.80;2.20;;;;;;;5.70;100.00;98802.75;4134067;28;20221;-50
2023/01/14 04:25:46;;;;;;;5.47;2.25;;;;;;;5.71;100.00;98788.13;4135299;28;20201;-49
2023/01/14 04:27:47;;;;;;;3.17;2.65;;;;;;;5.73;100.00;98789.59;4137602;28;20280;-50
2023/01/14 04:29:49;;;;;;;16.20;3.10;;;;;;;5.69;100.00;98785.63;4134562;28;20242;-50
2023/01/14 04:31:51;;;;;;;12.85;3.63;;;;;;;5.68;100.00;98791.25;4135748;28;20281;-49
2023/01/14 04:33:53;;;;;;;3.97;1.67;;;;;;;5.70;100.00;98791.91;4120112;28;20230;-50
2023/01/14 04:35:54;;;;;;;7.32;3.25;;;;;;;5.70;100.00;98797.34;4146346;28;20219;-49
2023/01/14 04:37:56;;;;;;;6.85;2.97;;;;;;;5.67;100.00;98787.72;4136230;28;20206;-49
2023/01/14 04:39:58;;;;;;;6.25;2.92;;;;;;;5.71;100.00;98799.00;4134906;28;20317;-49
2023/01/14 04:44:20;;;;;;;3.72;2.25;;;;;;;5.75;100.00;98794.81;4137294;28;20201;-50
2023/01/14 04:46:22;;;;;;;6.20;3.05;;;;;;;5.71;100.00;98788.13;4135547;28;20213;-49
2023/01/14 04:48:24;;;;;;;13.55;2.75;;;;;;;5.75;100.00;98792.09;4121193;28;20212;-50
2023/01/14 04:50:33;;;;;;;3.70;1.80;;;;;;;5.72;100.00;98789.81;4134219;28;20230;-49
2023/01/14 04:52:35;;;;;;;3.13;2.45;;;;;;;5.64;100.00;98790.03;4122057;28;20612;-49
2023/01/14 04:54:37;;;;;;;4.30;2.28;;;;;;;5.72;100.00;98793.34;4132904;28;20210;-50
2023/01/14 04:56:39;;;;;;;8.23;3.00;;;;;;;5.66;100.00;98787.94;4136207;28;20706;-50
2023/01/14 04:58:41;;;;;;;20.38;2.85;;;;;;;5.65;100.00;98783.56;4138569;28;20213;-49
2023/01/14 05:00:43;;;;;;;16.40;2.60;;;;;;;5.63;100.00;98780.22;4137572;28;20564;-49
2023/01/14 05:02:45;;;;;;;2.92;2.30;;;;;;;5.62;100.00;98773.13;4132408;28;20210;-49
2023/01/14 05:04:47;;;;;;;6.68;2.35;;;;;;;5.62;100.00;98762.28;4131605;28;20692;-49
2023/01/14 05:06:49;;;;;;;2.65;1.92;;;;;;;5.59;100.00;98762.69;4140060;28;20295;-49
2023/01/14 05:08:51;;;;;;;5.20;2.22;;;;;;;5.54;100.00;98765.19;4153341;28;20765;-50
2023/01/14 05:10:53;;;;;;;13.40;2.35;;;;;;;5.54;100.00;98767.91;4136410;28;20309;-49
2023/01/14 05:12:57;;;;;;;7.93;1.95;;;;;;;5.54;100.00;98766.03;4137969;28;20320;-49
2023/01/14 05:14:59;;;;;;;3.10;1.55;;;;;;;5.56;100.00;98768.56;4137475;28;20837;-49
2023/01/14 05:17:01;;;;;;;9.77;3.00;;;;;;;5.51;100.00;98760.22;4122351;28;20272;-50
2023/01/14 05:19:03;;;;;;;4.43;2.33;;;;;;;5.52;100.00;98765.44;4134289;28;20209;-48
2023/01/14 05:21:05;;;;;;;4.88;2.22;;;;;;;5.47;100.00;98756.22;4137168;28;20229;-49
2023/01/14 05:23:16;;;;;;;2.55;1.90;;;;;;;5.38;100.00;98761.06;4138072;28;20652;-50
2023/01/14 05:25:18;;;;;;;13.15;2.10;;;;;;;5.43;100.00;98753.09;4151873;28;20350;-50
2023/01/14 05:27:20;;;;;;;11.60;2.25;;;;;;;5.52;100.00;98753.72;4150044;28;20209;-49
2023/01/14 05:29:21;;;;;;;2.25;1.75;;;;;;;5.44;100.00;98753.97;4135947;28;20232;-51
2023/01/14 05:31:23;;;;;;;4.72;2.60;;;;;;;5.50;100.00;98753.94;4137496;28;20256;-48
2023/01/14 05:33:25;;;;;;;4.53;2.70;;;;;;;5.49;100.00;98751.44;4135501;28;20758;-50
2023/01/14 05:35:27;;;;;;;5.85;2.92;;;;;;;5.47;100.00;98753.53;4136432;28;20224;-50
2023/01/14 05:37:29;;;;;;;4.43;2.45;;;;;;;5.49;100.00;98740.59;4138700;28;20209;-49
2023/01/14 05:39:30;;;;;;;2.63;1.60;;;;;;;5.48;100.00;98744.34;4135175;28;20248;-49
2023/01/14 05:41:32;;;;;;;2.45;2.08;;;;;;;5.63;100.00;98731.38;4147962;28;20225;-50
2023/01/14 05:45:54;;;;;;;5.45;2.83;;;;;;;5.59;100.00;98732.84;4135732;28;20247;-49
2023/01/14 05:47:57;;;;;;;7.85;1.70;;;;;;;5.48;100.00;98725.34;4132200;28;20415;-50
2023/01/14 05:49:58;;;;;;;4.45;1.70;;;;;;;5.50;100.00;98723.25;4138021;28;20221;-50
2023/01/14 05:52:00;;;;;;;7.13;1.83;;;;;;;5.45;100.00;98720.34;4136554;28;20335;-49
2023/01/14 05:54:02;;;;;;;4.13;1.80;;;;;;;5.40;100.00;98721.00;4151918;28;20228;-49
2023/01/14 05:56:04;;;;;;;2.70;1.58;;;;;;;5.46;100.00;98708.44;4151768;28;20834;-50
2023/01/14 05:58:06;;;;;;;9.65;2.78;;;;;;;5.44;100.00;98707.84;4135423;28;20268;-50
2023/01/14 06:06:20;;;;;;;4.43;1.10;;;;;;;5.47;100.00;98707.38;4138365;28;20315;-49
2023/01/14 06:07:13;;;;;;;3.92;1.83;;;;;;;5.42;100.00;98696.38;4134920;28;20249;-49
2023/01/14 06:09:16;;;;;;;3.17;1.50;;;;;;;5.29;100.00;98701.81;4138247;28;20233;-49
2023/01/14 06:11:19;;;;;;;5.65;2.13;;;;;;;5.33;100.00;98698.47;4138096;28;21252;-51
2023/01/14 06:13:24;;;;;;;8.15;1.98;;;;;;;5.31;100.00;98702.44;4141967;28;20234;-50
2023/01/14 06:15:35;;;;;;;4.35;1.50;;;;;;;5.41;100.00;98694.69;4138303;28;20300;-49
2023/01/14 06:17:44;;;;;;;3.63;2.03;;;;;;;5.43;100.00;98682.56;4143606;28;20209;-51
2023/01/14 06:19:46;;;;;;;7.60;2.30;;;;;;;5.46;100.00;98686.72;4138841;28;20259;-49
2023/01/14 06:21:48;;;;;;;5.07;2.38;;;;;;;5.48;100.00;98684.63;4121203;28;20226;-49
2023/01/14 06:23:50;;;;;;;10.13;2.20;;;;;;;5.50;100.00;98685.28;4122468;28;20257;-50
2023/01/14 06:25:51;;;;;;;4.90;3.13;;;;;;;5.50;100.00;98683.38;4149184;28;20252;-50
2023/01/14 06:27:53;;;;;;;1.98;1.55;;;;;;;5.53;100.00;98674.81;4121318;28;20206;-49
2023/01/14 06:29:55;;;;;;;2.38;1.23;;;;;;;5.55;100.00;98658.34;4135384;28;20252;-49
2023/01/14 06:31:56;;;;;;;5.75;2.03;;;;;;;5.52;100.00;98656.88;4138460;28;20882;-50
2023/01/14 06:34:01;;;;;;;8.82;2.65;;;;;;;5.54;100.00;98657.50;4122870;28;20253;-50
2023/01/14 06:36:03;;;;;;;1.73;1.30;;;;;;;5.60;100.00;98659.34;4138963;28;20209;-49
2023/01/14 06:38:05;;;;;;;8.05;2.45;;;;;;;5.65;100.00;98654.13;4150279;28;20248;-50
2023/01/14 06:40:07;;;;;;;6.43;1.73;;;;;;;5.61;100.00;98662.88;4149221;28;20209;-49
2023/01/14 06:42:09;;;;;;;5.45;1.60;;;;;;;5.65;100.00;98658.69;4133532;28;20256;-49
2023/01/14 06:44:11;;;;;;;5.97;1.48;;;;;;;5.67;100.00;98659.31;4135216;28;20754;-50
2023/01/14 06:46:14;;;;;;;7.28;1.60;;;;;;;5.69;100.00;98649.91;4139059;28;20221;-50
2023/01/14 06:48:15;;;;;;;3.78;1.67;;;;;;;5.67;100.00;98645.72;4137898;28;20209;-49
2023/01/14 06:50:18;;;;;;;5.90;2.55;;;;;;;5.69;100.00;98639.03;4136411;28;20559;-49
2023/01/14 06:52:21;;;;;;;4.93;2.03;;;;;;;5.72;100.00;98649.47;4140005;28;20258;-50
2023/01/14 06:54:22;;;;;;;2.97;1.98;;;;;;;5.74;100.00;98641.09;4139897;28;20229;-50
2023/01/14 06:56:24;;;;;;;4.38;1.95;;;;;;;5.74;100.00;98630.25;4135510;28;20217;-50
2023/01/14 06:58:26;;;;;;;2.33;1.83;;;;;;;5.83;100.00;98631.72;4137988;28;20715;-51
2023/01/14 07:00:28;;;;;;;6.43;1.92;;;;;;;5.80;100.00;98623.97;4135230;28;20271;-50
2023/01/14 07:02:30;;;;;;;9.00;2.35;;;;;;;5.86;100.00;98623.97;4138136;28;20255;-49
2023/01/14 07:04:32;;;;;;;3.78;1.95;;;;;;;5.88;100.00;98615.59;4136820;28;20210;-51
2023/01/14 07:06:34;;;;;;;1.80;1.13;;;;;;;5.83;100.00;98612.69;4137339;28;20210;-49
2023/01/14 07:08:36;;;;;;;2.92;1.48;;;;;;;5.89;100.00;98617.25;4136569;28;20210;-49
2023/01/14 07:10:37;;;;;;;9.77;2.03;;;;;;;5.83;100.00;98607.28;4133154;28;20658;-50
2023/01/14 07:12:44;;;;;;;7.20;1.83;;;;;;;5.80;100.00;98591.41;4137225;28;20236;-49
2023/01/14 07:14:46;;;;;;;7.88;1.83;;;;;;;5.85;100.00;98605.16;4135085;28;20260;-49
2023/01/14 07:16:48;;;;;;;3.17;2.20;;;;;;;5.81;100.00;98598.50;4132335;28;20601;-50
2023/01/14 07:18:50;;;;;;;7.22;1.27;;;;;;;5.86;100.00;98595.97;4138161;28;20917;-49
2023/01/14 07:20:56;;;;;;;7.00;2.17;;;;;;;5.81;100.00;98593.06;4130548;28;20296;-50
2023/01/14 07:23:01;;;;;;;3.88;2.15;;;;;;;5.81;100.00;98587.63;4133408;28;20248;-49
2023/01/14 07:25:04;;;;;;;1.55;1.45;;;;;;;5.81;100.00;98587.63;4137188;28;20406;-49
2023/01/14 07:27:06;;;;;;;4.72;1.23;;;;;;;5.80;100.00;98592.25;4134569;28;20193;-49
2023/01/14 07:29:09;;;;;;;6.43;2.28;;;;;;;5.83;100.00;98590.97;4122381;28;20245;-50
2023/01/14 07:31:11;;;;;;;6.57;1.58;;;;;;;5.80;100.00;98589.53;4138817;28;20657;-49
2023/01/14 07:33:12;;;;;;;4.28;2.00;;;;;;;5.83;100.00;98580.13;4136346;28;20201;-49
2023/01/14 07:35:14;;;;;;;4.38;2.35;;;;;;;5.85;100.00;98584.28;4135023;28;20266;-50
2023/01/14 07:37:17;;;;;;;3.85;1.77;;;;;;;5.86;100.00;98590.53;4115378;28;20260;-49
2023/01/14 07:39:18;;;;;;;7.63;1.40;;;;;;;5.88;100.00;98574.88;4135682;28;20205;-50
2023/01/14 07:41:20;;;;;;;3.58;1.98;;;;;;;5.93;100.00;98588.59;4135040;28;21262;-50
2023/01/14 07:43:22;;;;;;;6.03;1.33;;;;;;;5.94;100.00;98580.25;4135310;28;20251;-49
2023/01/14 07:45:25;;;;;;;7.13;1.70;;;;;;;5.94;100.00;98571.25;4131496;28;20210;-51
2023/01/14 07:47:27;;;;;;;3.40;1.38;;;;;;;5.97;100.00;98565.41;4133767;28;20296;-49
2023/01/14 07:49:28;;;;;;;2.40;1.33;;;;;;;5.98;100.00;98561.63;4138779;28;20289;-49
2023/01/14 07:51:30;;;;;;;2.78;1.90;;;;;;;5.99;100.00;98564.13;4132467;28;20633;-49
2023/01/14 07:53:32;;;;;;;1.67;1.35;;;;;;;6.07;100.00;98560.28;4134009;28;20323;-50
2023/01/14 07:55:35;;;;;;;9.45;2.75;;;;;;;6.05;100.00;98557.81;4134843;28;20265;-50
2023/01/14 07:57:37;;;;;;;2.97;2.00;;;;;;;6.06;100.00;98555.91;4134963;28;20217;-50
2023/01/14 07:59:39;;;;;;;2.38;1.63;;;;;;;6.13;100.00;98564.84;4136672;28;20210;-49
2023/01/14 08:01:41;;;;;;;3.03;1.17;;;;;;;6.14;100.00;98555.66;4135684;28;20279;-50
2023/01/14 08:03:43;;;;;;;2.53;1.70;;;;;;;6.23;100.00;98548.91;4130614;28;20591;-49
2023/01/14 08:05:45;;;;;;;2.83;1.40;;;;;;;6.24;100.00;98540.50;4148863;28;20204;-50
2023/01/14 08:07:47;;;;;;;2.97;2.67;;;;;;;6.28;100.00;98541.75;4121352;28;20209;-50
2023/01/14 08:09:49;;;;;;;2.28;1.50;;;;;;;6.30;100.00;98534.19;4121012;28;20775;-50
2023/01/14 08:11:51;;;;;;;2.75;1.27;;;;;;;6.35;100.00;98530.81;4146232;28;20315;-50
2023/01/14 08:13:53;;;;;;;2.22;0.98;;;;;;;6.42;100.00;98520.72;4132884;28;20704;-49
2023/01/14 08:15:55;;;;;;;3.50;1.67;;;;;;;6.45;100.00;98517.56;4133885;28;20754;-49
2023/01/14 08:17:57;;;;;;;5.22;1.48;;;;;;;6.47;100.00;98520.88;4137151;28;20217;-51
2023/01/14 08:19:59;;;;;;;1.38;1.10;;;;;;;6.52;100.00;98521.88;4137889;28;20774;-50
2023/01/14 08:22:00;;;;;;;1.45;0.98;;;;;;;6.59;100.00;98516.34;4118300;28;20304;-50
2023/01/14 08:24:02;;;;;;;3.33;1.25;;;;;;;6.63;100.00;98515.69;4137983;28;20228;-50
2023/01/14 08:26:07;;;;;;;1.50;1.10;;;;;;;6.71;100.00;98517.28;4134270;28;20231;-50
2023/01/14 08:28:09;;;;;;;1.95;1.65;;;;;;;6.71;100.00;98500.97;4136404;28;20201;-48
2023/01/14 08:30:11;;;;;;;1.45;1.00;;;;;;;6.77;100.00;98519.09;4131147;28;20303;-50
2023/01/14 08:32:13;;;;;;;1.50;1.40;;;;;;;6.80;100.00;98508.59;4150795;28;20787;-50
2023/01/14 08:34:15;;;;;;;3.13;1.30;;;;;;;6.84;100.00;98498.09;4139836;28;20329;-48
2023/01/14 08:36:18;;;;;;;1.67;1.15;;;;;;;6.87;100.00;98503.06;4137757;28;20315;-50
2023/01/14 08:38:20;;;;;;;1.83;1.73;;;;;;;6.91;100.00;98494.25;4137501;28;20237;-49
2023/01/14 08:40:25;;;;;;;2.17;1.33;;;;;;;6.95;100.00;98494.63;4139111;28;21313;-49
2023/01/14 08:42:26;;;;;;;1.75;1.65;;;;;;;6.93;100.00;98491.28;4138760;28;20765;-49
2023/01/14 08:44:28;;;;;;;2.38;1.20;;;;;;;6.95;100.00;98494.63;4139151;28;20552;-50
2023/01/14 08:46:30;;;;;;;1.33;1.13;;;;;;;6.99;100.00;98485.78;4124884;28;20697;-50
2023/01/14 08:48:32;;;;;;;1.20;1.02;;;;;;;7.00;100.00;98481.16;4142497;28;20292;-50
2023/01/14 08:50:34;;;;;;;1.73;1.63;;;;;;;7.02;100.00;98496.19;4135056;28;20510;-48
2023/01/14 08:52:36;;;;;;;6.93;1.30;;;;;;;7.07;100.00;98482.75;4137018;28;20248;-49
2023/01/14 08:54:37;;;;;;;4.43;1.85;;;;;;;7.10;100.00;98492.34;4151491;28;20423;-49
2023/01/14 08:56:39;;;;;;;0.93;0.93;;;;;;;7.12;100.00;98491.06;4138026;28;20208;-50
2023/01/14 08:58:42;;;;;;;1.77;1.13;;;;;;;7.21;100.00;98476.06;4141385;28;20683;-49
2023/01/14 09:00:43;;;;;;;1.27;1.20;;;;;;;7.23;100.00;98478.56;4136815;28;20233;-50
2023/01/14 09:02:45;;;;;;;1.70;1.60;;;;;;;7.26;100.00;98469.94;4138796;28;20228;-49
2023/01/14 09:04:47;;;;;;;2.00;1.10;;;;;;;7.29;100.00;98453.16;4135600;28;20241;-49
2023/01/14 09:18:41;;;;;;;0.98;0.98;;;;;;;7.48;100.00;98441.97;4106142;28;20667;-51
2023/01/14 09:20:45;;;;;;;2.78;1.42;;;;;;;7.59;100.00;98437.63;4132719;28;20212;-49
2023/01/14 09:22:47;;;;;;;2.13;0.90;;;;;;;7.60;100.00;98439.28;4137770;28;20205;-50
2023/01/14 09:24:50;;;;;;;2.40;1.40;;;;;;;7.63;100.00;98442.38;4137866;28;20299;-50
2023/01/14 09:26:51;;;;;;;4.00;2.10;;;;;;;7.67;100.00;98429.94;4138004;28;20225;-49
2023/01/14 09:28:53;;;;;;;2.17;1.77;;;;;;;7.66;100.00;98444.63;4136486;28;20240;-49
2023/01/14 09:30:55;;;;;;;1.33;1.23;;;;;;;7.70;100.00;98425.94;4135446;28;20278;-50
2023/01/14 09:32:58;;;;;;;2.83;1.10;;;;;;;7.74;100.00;98418.94;4137700;28;21004;-49
2023/01/14 09:35:00;;;;;;;3.63;1.10;;;;;;;7.77;100.00;98423.94;4131298;28;20284;-49
2023/01/14 09:37:01;;;;;;;1.17;0.90;;;;;;;7.79;100.00;98411.75;4137505;28;20767;-51
2023/01/14 09:39:03;;;;;;;2.60;1.40;;;;;;;7.87;100.00;98418.72;4118513;28;20297;-49
2023/01/14 09:41:05;;;;;;;1.20;1.10;;;;;;;7.89;100.00;98403.00;4134986;28;20332;-50
2023/01/14 09:43:16;;;;;;;3.63;0.77;;;;;;;7.91;100.00;98398.97;4147883;28;20236;-50
2023/01/14 09:45:38;;;;;;;0.70;0.70;;;;;;;7.93;100.00;98401.44;4134511;28;20244;-49
2023/01/14 09:47:41;;;;;;;4.63;1.20;;;;;;;8.00;100.00;98388.53;4144871;28;20917;-49
2023/01/14 09:49:44;;;;;;;6.05;1.65;;;;;;;8.04;100.00;98381.53;4136616;28;20731;-49
2023/01/14 09:52:29;;;;;;;2.90;0.80;;;;;;;8.06;100.00;98374.78;4135566;28;20245;-50
2023/01/14 09:54:31;;;;;;;0.88;0.88;;;;;;;8.07;100.00;98381.91;4135715;28;20304;-49
2023/01/14 09:56:40;;;;;;;0.90;0.90;;;;;;;8.12;100.00;98378.47;4134675;28;20684;-50
2023/01/14 09:58:53;;;;;;;1.00;0.70;;;;;;;8.13;100.00;98380.94;4137507;28;20235;-49
2023/01/14 10:01:13;;;;;;;3.53;1.45;;;;;;;8.17;100.00;98392.22;4134855;28;20256;-49
2023/01/14 10:03:28;;;;;;;0.75;0.75;;;;;;;8.20;100.00;98375.41;4139114;28;20221;-50
2023/01/14 10:05:33;;;;;;;0.90;0.90;;;;;;;8.20;100.00;98370.78;4136162;28;21836;-50
2023/01/14 10:07:35;;;;;;;0.70;0.70;;;;;;;8.21;100.00;98366.19;4137359;28;20276;-51
2023/01/14 10:09:48;;;;;;;0.80;0.80;;;;;;;8.23;100.00;98359.41;4154117;28;20209;-51
2023/01/14 10:11:50;;;;;;;1.65;1.35;;;;;;;8.23;100.00;98358.59;4153214;28;20270;-51
2023/01/14 10:13:58;;;;;;;1.15;0.80;;;;;;;8.22;100.00;98356.94;4136679;28;20236;-49
2023/01/14 10:16:17;;;;;;;4.75;1.00;;;;;;;8.30;100.00;98337.47;4151278;28;20208;-50
2023/01/14 10:18:24;;;;;;;0.63;0.60;;;;;;;8.33;100.00;98340.56;4137386;28;20655;-51